Time;durP1;ratioP1;P1;durP2;ratioP2;P2;SDS_P1;SDS_P2;PMS_P1;PMS_P2;Temp;Humidity;BMP_temperature;BMP_pressure;BME280_temperature;BME280_humidity;BME280_pressure;Samples;Min_cycle;Max_cycle;Signal;HPM_P1;HPM_P2
2023/05/31 00:01:50;;;;;;;6.53;2.47;;;15.80;45.50;;;;;;5053298;28;20904;-68
2023/05/31 00:04:36;;;;;;;3.80;2.00;;;15.80;44.90;;;;;;5048424;28;20455;-68
2023/05/31 00:07:21;;;;;;;7.90;2.77;;;15.90;41.40;;;;;;5044996;28;20558;-68
2023/05/31 00:10:07;;;;;;;5.00;2.43;;;16.10;39.70;;;;;;5047991;28;20453;-68
2023/05/31 00:12:53;;;;;;;8.70;2.50;;;16.30;37.90;;;;;;5049658;28;20478;-68
2023/05/31 00:15:40;;;;;;;6.83;2.63;;;16.30;39.30;;;;;;5047779;28;20473;-68
2023/05/31 00:18:25;;;;;;;7.40;3.00;;;16.20;38.90;;;;;;5050031;28;20568;-69
2023/05/31 00:21:11;;;;;;;8.30;2.50;;;16.30;38.80;;;;;;5049264;28;20417;-68
2023/05/31 00:23:56;;;;;;;9.03;2.97;;;16.30;38.50;;;;;;5049391;28;20478;-68
2023/05/31 00:26:42;;;;;;;7.50;2.40;;;16.30;37.90;;;;;;5047122;28;20574;-68
2023/05/31 00:29:28;;;;;;;6.73;3.30;;;16.40;35.80;;;;;;5052253;28;20439;-68
2023/05/31 00:32:15;;;;;;;9.10;2.37;;;16.30;38.10;;;;;;5044639;28;20542;-68
2023/05/31 00:35:00;;;;;;;4.37;2.60;;;16.20;37.60;;;;;;5050669;28;20455;-68
2023/05/31 00:37:46;;;;;;;5.17;2.53;;;16.30;37.50;;;;;;5041884;28;20430;-68
2023/05/31 00:40:31;;;;;;;7.33;2.97;;;16.30;39.00;;;;;;5047756;28;20552;-68
2023/05/31 00:43:17;;;;;;;3.33;2.23;;;16.30;38.90;;;;;;5048441;28;20495;-68
2023/05/31 00:46:03;;;;;;;8.43;2.87;;;16.20;40.50;;;;;;5044687;28;20981;-68
2023/05/31 00:48:49;;;;;;;10.27;2.70;;;16.10;41.80;;;;;;5047071;28;20417;-68
2023/05/31 00:51:36;;;;;;;10.07;2.40;;;16.10;36.20;;;;;;5048055;28;20420;-69
2023/05/31 00:54:22;;;;;;;7.87;2.70;;;16.10;39.40;;;;;;5050203;28;20418;-68
2023/05/31 00:57:08;;;;;;;4.40;2.00;;;16.10;40.30;;;;;;5046657;28;20448;-68
2023/05/31 00:59:53;;;;;;;5.77;2.27;;;16.20;41.00;;;;;;5055857;28;20444;-68
2023/05/31 01:02:41;;;;;;;5.27;2.47;;;16.00;42.20;;;;;;5049650;28;20485;-68
2023/05/31 01:05:27;;;;;;;8.23;2.73;;;15.90;43.10;;;;;;5048268;28;20495;-68
2023/05/31 01:08:14;;;;;;;4.80;2.23;;;16.00;39.60;;;;;;5048971;28;20471;-68
2023/05/31 01:11:06;;;;;;;7.87;2.50;;;16.10;41.10;;;;;;5058212;28;20425;-68
2023/05/31 01:13:59;;;;;;;8.20;2.53;;;16.20;36.90;;;;;;5049603;28;20827;-68
2023/05/31 01:16:48;;;;;;;11.63;2.20;;;16.20;36.30;;;;;;5042694;28;20429;-70
2023/05/31 01:19:46;;;;;;;6.17;2.70;;;16.30;37.10;;;;;;5056827;28;20596;-70
2023/05/31 01:22:51;;;;;;;5.30;2.13;;;16.40;34.10;;;;;;5043285;28;20474;-70
2023/05/31 01:25:58;;;;;;;6.07;2.87;;;16.40;35.40;;;;;;5042048;28;20433;-70
2023/05/31 01:28:48;;;;;;;6.50;2.67;;;16.40;32.60;;;;;;5050192;28;20502;-70
2023/05/31 01:31:36;;;;;;;10.07;2.30;;;16.50;35.20;;;;;;5042801;28;20453;-70
2023/05/31 01:34:21;;;;;;;17.70;2.70;;;16.50;32.10;;;;;;5054073;28;20435;-70
2023/05/31 01:37:06;;;;;;;7.27;2.77;;;16.60;31.60;;;;;;5042277;28;20527;-70
2023/05/31 01:39:52;;;;;;;8.23;2.50;;;16.70;33.30;;;;;;5047630;28;20444;-70
2023/05/31 01:42:38;;;;;;;6.73;2.23;;;16.60;31.10;;;;;;5042598;28;20487;-70
2023/05/31 01:45:26;;;;;;;10.63;2.10;;;16.60;31.50;;;;;;5045217;28;20451;-70
2023/05/31 01:48:12;;;;;;;13.50;2.60;;;16.60;32.10;;;;;;5053229;28;20419;-70
2023/05/31 01:50:59;;;;;;;9.57;2.73;;;16.40;31.50;;;;;;5046562;28;20434;-70
2023/05/31 01:53:45;;;;;;;8.03;3.00;;;16.40;30.90;;;;;;5043889;28;20589;-70
2023/05/31 01:56:32;;;;;;;4.83;2.13;;;16.50;33.80;;;;;;5037759;28;21057;-70
2023/05/31 01:59:18;;;;;;;7.70;2.33;;;16.50;33.60;;;;;;5055177;28;20417;-70
2023/05/31 02:02:06;;;;;;;6.50;2.27;;;16.50;32.50;;;;;;5046880;28;21073;-70
2023/05/31 02:04:51;;;;;;;5.90;2.60;;;16.60;30.90;;;;;;5043464;28;20443;-70
2023/05/31 02:07:37;;;;;;;10.07;2.37;;;16.60;33.00;;;;;;5051262;28;20987;-70
2023/05/31 02:10:23;;;;;;;6.43;3.10;;;16.60;31.30;;;;;;5057430;28;20425;-70
2023/05/31 02:13:08;;;;;;;4.57;2.10;;;16.60;32.20;;;;;;5051945;28;20564;-70
2023/05/31 02:15:54;;;;;;;7.43;2.57;;;16.50;34.70;;;;;;5043562;28;20450;-70
2023/05/31 02:18:40;;;;;;;8.40;2.50;;;16.40;32.50;;;;;;5046121;28;20420;-70
2023/05/31 02:21:26;;;;;;;7.13;2.50;;;16.40;30.50;;;;;;5049660;28;20551;-70
2023/05/31 02:24:11;;;;;;;7.53;2.13;;;16.30;33.70;;;;;;5043535;28;20501;-70
2023/05/31 02:26:57;;;;;;;8.93;3.50;;;16.20;35.50;;;;;;5046959;28;20422;-70
2023/05/31 02:29:45;;;;;;;5.47;2.30;;;16.30;32.30;;;;;;5049240;28;20837;-70
2023/05/31 02:32:31;;;;;;;9.40;2.33;;;16.30;33.80;;;;;;5045148;28;21008;-70
2023/05/31 02:35:17;;;;;;;15.03;2.70;;;16.30;35.00;;;;;;5042421;28;20429;-70
2023/05/31 02:38:03;;;;;;;10.30;2.50;;;16.30;32.60;;;;;;5046354;28;20884;-70
2023/05/31 02:40:49;;;;;;;7.33;2.60;;;16.40;30.90;;;;;;5047786;28;20586;-70
2023/05/31 02:43:34;;;;;;;4.63;2.03;;;16.40;31.40;;;;;;5050977;28;20479;-70
2023/05/31 02:46:19;;;;;;;8.23;2.63;;;16.40;30.20;;;;;;5048314;28;20446;-70
2023/05/31 02:49:06;;;;;;;7.80;3.00;;;16.40;31.20;;;;;;5055730;28;20442;-70
2023/05/31 02:51:52;;;;;;;12.60;3.47;;;16.30;30.80;;;;;;5049945;28;21025;-70
2023/05/31 02:54:37;;;;;;;9.10;2.60;;;16.30;32.50;;;;;;5047384;28;20516;-70
2023/05/31 02:57:23;;;;;;;5.80;2.63;;;16.10;35.40;;;;;;5048868;28;20449;-70
2023/05/31 03:00:11;;;;;;;7.60;2.50;;;16.00;35.30;;;;;;5056778;28;20445;-70
2023/05/31 03:02:56;;;;;;;8.20;3.10;;;15.90;37.40;;;;;;5046139;28;20484;-70
2023/05/31 03:05:43;;;;;;;5.13;2.37;;;15.90;34.60;;;;;;5044336;28;20427;-70
2023/05/31 03:08:30;;;;;;;8.03;2.93;;;15.90;35.20;;;;;;5052389;28;20443;-70
2023/05/31 03:11:15;;;;;;;5.90;2.67;;;15.90;33.70;;;;;;5055734;28;21091;-70
2023/05/31 03:14:01;;;;;;;6.60;2.70;;;15.80;35.50;;;;;;5049552;28;20455;-70
2023/05/31 03:16:46;;;;;;;4.97;2.53;;;16.00;34.70;;;;;;5057478;28;20433;-70
2023/05/31 03:19:32;;;;;;;7.00;2.63;;;15.90;32.80;;;;;;5055133;28;20462;-70
2023/05/31 03:22:17;;;;;;;3.57;2.47;;;16.00;32.20;;;;;;5045467;28;20481;-70
2023/05/31 03:25:05;;;;;;;9.27;2.83;;;16.10;32.30;;;;;;5067810;22;20501;-87
2023/05/31 03:27:51;;;;;;;9.07;2.80;;;16.30;31.60;;;;;;5071765;28;20469;-88
2023/05/31 03:30:36;;;;;;;5.43;2.53;;;16.40;31.80;;;;;;5078818;28;20453;-87
2023/05/31 03:33:22;;;;;;;6.50;2.63;;;16.40;31.60;;;;;;5064840;28;20433;-88
2023/05/31 03:36:08;;;;;;;5.10;2.80;;;16.40;32.60;;;;;;5068803;28;20832;-87
2023/05/31 03:38:54;;;;;;;7.27;2.53;;;16.30;32.00;;;;;;5070424;28;21001;-87
2023/05/31 03:41:41;;;;;;;6.90;2.53;;;16.30;32.00;;;;;;5068000;28;20470;-87
2023/05/31 03:44:27;;;;;;;8.53;2.90;;;16.30;31.60;;;;;;5068098;28;20484;-88
2023/05/31 03:47:14;;;;;;;8.60;3.13;;;16.40;31.30;;;;;;5071914;28;20424;-87
2023/05/31 03:50:00;;;;;;;5.63;2.67;;;16.40;31.10;;;;;;5070300;28;20454;-87
2023/05/31 03:52:45;;;;;;;6.40;2.43;;;16.40;31.00;;;;;;5069809;28;20509;-87
2023/05/31 03:55:31;;;;;;;7.40;2.67;;;16.40;32.40;;;;;;5070818;28;20459;-87
2023/05/31 03:58:17;;;;;;;12.13;2.87;;;16.40;31.60;;;;;;5071280;28;20589;-87
2023/05/31 04:01:03;;;;;;;12.53;2.97;;;16.40;33.00;;;;;;5072474;28;20448;-87
2023/05/31 04:03:48;;;;;;;7.27;2.40;;;16.40;32.50;;;;;;5062979;28;20477;-88
2023/05/31 04:06:33;;;;;;;5.40;2.27;;;16.40;32.40;;;;;;5072981;28;20478;-87
2023/05/31 04:09:20;;;;;;;8.83;2.87;;;16.40;31.80;;;;;;5071103;28;21222;-87
2023/05/31 04:12:07;;;;;;;13.90;3.30;;;16.40;31.80;;;;;;5072067;28;20423;-87
2023/05/31 04:14:54;;;;;;;10.40;2.70;;;16.40;33.20;;;;;;5067855;28;20462;-87
2023/05/31 04:17:39;;;;;;;6.93;3.70;;;16.50;32.30;;;;;;5069587;28;20575;-87
2023/05/31 04:20:25;;;;;;;6.27;2.70;;;16.60;32.50;;;;;;5070319;28;20443;-87
2023/05/31 04:23:11;;;;;;;5.67;2.93;;;16.60;32.80;;;;;;5068453;28;20811;-87
2023/05/31 04:25:57;;;;;;;7.77;3.80;;;16.50;33.00;;;;;;5068328;28;20560;-87
2023/05/31 04:28:43;;;;;;;6.33;2.90;;;16.60;32.60;;;;;;5071209;28;20577;-87
2023/05/31 04:31:29;;;;;;;8.70;2.93;;;16.60;32.60;;;;;;5066762;28;20435;-87
2023/05/31 04:34:18;;;;;;;5.10;2.60;;;16.60;33.40;;;;;;5067316;28;20503;-87
2023/05/31 04:37:04;;;;;;;5.27;3.07;;;16.60;33.50;;;;;;5068049;28;20440;-87
2023/05/31 04:39:49;;;;;;;6.30;3.07;;;16.60;33.70;;;;;;5067990;28;20963;-86
2023/05/31 04:42:36;;;;;;;7.27;2.87;;;16.60;34.00;;;;;;5065062;28;21039;-88
2023/05/31 04:45:21;;;;;;;7.80;2.80;;;16.70;34.50;;;;;;5069794;28;20599;-90
2023/05/31 04:48:08;;;;;;;9.97;3.50;;;16.70;34.80;;;;;;5068773;28;20453;-88
2023/05/31 04:50:55;;;;;;;9.30;2.80;;;16.70;34.20;;;;;;5064862;28;20509;-87
2023/05/31 04:53:40;;;;;;;12.17;2.97;;;16.70;34.10;;;;;;5068251;28;20808;-87
2023/05/31 04:56:25;;;;;;;7.40;3.03;;;16.80;34.60;;;;;;5073005;28;20819;-87
2023/05/31 04:59:10;;;;;;;5.63;2.83;;;16.90;33.10;;;;;;5068653;28;20558;-87
2023/05/31 05:01:56;;;;;;;6.97;2.60;;;16.90;33.90;;;;;;5064682;28;20549;-87
2023/05/31 05:04:43;;;;;;;8.93;2.97;;;16.90;34.50;;;;;;5062796;28;20477;-87
2023/05/31 05:07:28;;;;;;;5.90;2.90;;;17.00;34.30;;;;;;5068933;28;20966;-87
2023/05/31 05:10:15;;;;;;;7.57;2.67;;;17.00;34.40;;;;;;5064926;28;21001;-87
2023/05/31 05:13:01;;;;;;;8.97;3.17;;;17.10;33.40;;;;;;5065909;28;20981;-87
2023/05/31 05:15:46;;;;;;;12.10;4.47;;;17.10;33.20;;;;;;5068049;28;20587;-87
2023/05/31 05:18:32;;;;;;;7.07;2.60;;;17.20;33.60;;;;;;5071120;28;20508;-87
2023/05/31 05:21:19;;;;;;;6.97;2.73;;;17.30;32.60;;;;;;5066343;28;20426;-86
2023/05/31 05:24:05;;;;;;;6.43;2.83;;;17.40;32.10;;;;;;5069001;28;20454;-87
2023/05/31 05:26:50;;;;;;;13.53;2.97;;;17.50;32.50;;;;;;5078031;28;20919;-86
2023/05/31 05:29:36;;;;;;;7.50;3.10;;;17.50;32.00;;;;;;5083350;28;20473;-86
2023/05/31 05:32:21;;;;;;;15.90;3.13;;;17.60;32.70;;;;;;5059600;28;20455;-86
2023/05/31 05:35:08;;;;;;;7.20;2.50;;;17.60;33.10;;;;;;5082853;28;20550;-86
2023/05/31 05:37:55;;;;;;;8.03;3.30;;;17.70;31.90;;;;;;5076180;28;20933;-86
2023/05/31 05:40:40;;;;;;;7.60;3.10;;;17.70;31.90;;;;;;5071513;28;20491;-86
2023/05/31 05:43:28;;;;;;;12.17;2.77;;;17.70;31.20;;;;;;5064833;28;20501;-86
2023/05/31 05:46:13;;;;;;;9.20;2.67;;;17.80;32.40;;;;;;5064800;28;20464;-87
2023/05/31 05:48:59;;;;;;;10.47;3.10;;;17.90;32.50;;;;;;5076400;28;20529;-87
2023/05/31 05:51:45;;;;;;;6.20;4.30;;;17.80;32.80;;;;;;5062424;28;20420;-86
2023/05/31 05:54:32;;;;;;;12.73;3.00;;;17.90;32.20;;;;;;5070649;28;21037;-87
2023/05/31 05:57:18;;;;;;;9.83;3.30;;;18.00;31.40;;;;;;5072871;28;20454;-86
2023/05/31 06:00:10;;;;;;;6.63;2.80;;;18.00;31.60;;;;;;5071973;28;20794;-86
2023/05/31 06:02:55;;;;;;;7.03;2.70;;;18.00;32.00;;;;;;5063992;28;20444;-87
2023/05/31 06:05:43;;;;;;;7.20;2.60;;;18.20;32.10;;;;;;5076316;28;21076;-87
2023/05/31 06:08:28;;;;;;;12.00;3.10;;;18.30;30.30;;;;;;5072210;28;20572;-86
2023/05/31 06:11:18;;;;;;;4.93;2.77;;;18.30;31.20;;;;;;5072133;28;20536;-86
2023/05/31 06:14:03;;;;;;;7.67;2.73;;;18.30;31.00;;;;;;5079359;28;21898;-86
2023/05/31 06:16:49;;;;;;;10.13;3.47;;;18.40;31.50;;;;;;5071987;28;20428;-86
2023/05/31 06:19:34;;;;;;;7.53;2.83;;;18.50;30.90;;;;;;5073054;28;20818;-86
2023/05/31 06:22:20;;;;;;;6.70;2.70;;;18.50;30.90;;;;;;5070787;28;20539;-87
2023/05/31 06:25:06;;;;;;;10.30;2.80;;;18.70;31.30;;;;;;5083007;28;20484;-87
2023/05/31 06:27:53;;;;;;;8.10;2.77;;;18.70;31.10;;;;;;5080465;28;20441;-85
2023/05/31 06:30:38;;;;;;;9.70;2.90;;;18.80;29.80;;;;;;5073216;28;21069;-86
2023/05/31 06:33:24;;;;;;;6.77;2.50;;;18.90;30.00;;;;;;5071176;28;20810;-86
2023/05/31 06:36:10;;;;;;;6.10;2.67;;;19.00;31.00;;;;;;5073603;28;20512;-86
2023/05/31 06:38:55;;;;;;;8.77;2.63;;;19.10;29.70;;;;;;5077347;28;20449;-86
2023/05/31 06:41:41;;;;;;;10.40;2.73;;;19.10;28.80;;;;;;5067286;28;20411;-87
2023/05/31 06:44:28;;;;;;;4.27;2.20;;;19.20;28.80;;;;;;5073396;28;20452;-86
2023/05/31 06:47:13;;;;;;;4.53;2.20;;;19.30;29.80;;;;;;5071435;28;20443;-86
2023/05/31 06:49:58;;;;;;;8.50;3.70;;;19.30;30.00;;;;;;5071565;28;20420;-86
2023/05/31 06:52:44;;;;;;;6.30;2.60;;;19.40;30.10;;;;;;5062953;28;20450;-86
2023/05/31 06:55:29;;;;;;;6.80;2.50;;;19.50;30.00;;;;;;5078643;28;20553;-86
2023/05/31 06:58:16;;;;;;;9.87;3.10;;;19.60;29.00;;;;;;5071935;28;20834;-86
2023/05/31 07:01:02;;;;;;;5.10;2.70;;;19.70;29.50;;;;;;5068638;28;20868;-86
2023/05/31 07:03:48;;;;;;;9.83;3.17;;;19.80;27.90;;;;;;5074263;28;20437;-86
2023/05/31 07:06:33;;;;;;;9.10;2.93;;;19.80;27.40;;;;;;5080668;28;20954;-88
2023/05/31 07:09:19;;;;;;;6.27;2.87;;;19.90;27.90;;;;;;5064780;28;20790;-86
2023/05/31 07:12:05;;;;;;;10.10;2.90;;;20.00;28.50;;;;;;5064763;28;20451;-86
2023/05/31 07:14:50;;;;;;;6.30;2.93;;;20.10;27.30;;;;;;5072845;28;20463;-86
2023/05/31 07:17:37;;;;;;;5.50;2.60;;;20.10;26.50;;;;;;5073092;28;20446;-87
2023/05/31 07:20:23;;;;;;;6.93;2.80;;;20.20;26.60;;;;;;5069756;28;20439;-85
2023/05/31 07:23:08;;;;;;;9.33;3.30;;;20.30;25.50;;;;;;5070676;28;20446;-87
2023/05/31 07:25:57;;;;;;;14.43;2.90;;;20.30;24.30;;;;;;5070455;28;20825;-86
2023/05/31 07:28:42;;;;;;;7.63;2.90;;;20.30;25.00;;;;;;5068412;28;20551;-86
2023/05/31 07:31:27;;;;;;;6.87;2.50;;;20.40;25.80;;;;;;5065344;28;20509;-87
2023/05/31 07:34:14;;;;;;;14.67;2.47;;;20.50;26.20;;;;;;5069980;28;20509;-87
2023/05/31 07:37:00;;;;;;;4.67;2.30;;;20.60;25.50;;;;;;5075877;28;20493;-86
2023/05/31 07:39:45;;;;;;;8.00;2.57;;;20.70;24.70;;;;;;5074374;28;20496;-86
2023/05/31 07:42:32;;;;;;;7.07;2.20;;;20.80;24.60;;;;;;5064033;28;20476;-87
2023/05/31 07:45:18;;;;;;;9.77;3.03;;;20.90;24.40;;;;;;5072875;28;20453;-86
2023/05/31 07:48:04;;;;;;;6.53;2.80;;;21.00;24.00;;;;;;5073925;28;20454;-86
2023/05/31 07:50:51;;;;;;;4.90;2.27;;;21.00;21.00;;;;;;5063867;28;20554;-86
2023/05/31 07:53:36;;;;;;;7.23;2.63;;;21.00;19.40;;;;;;5069581;28;20569;-87
2023/05/31 07:56:31;;;;;;;4.17;2.03;;;21.10;21.30;;;;;;5068405;28;20549;-85
2023/05/31 07:59:17;;;;;;;5.37;2.40;;;21.20;18.30;;;;;;5066893;28;20805;-86
2023/05/31 08:02:04;;;;;;;6.37;2.93;;;21.30;19.60;;;;;;5064893;28;20585;-86
2023/05/31 08:04:49;;;;;;;4.03;2.30;;;21.30;18.80;;;;;;5074660;28;20479;-89
2023/05/31 08:07:36;;;;;;;8.93;2.37;;;21.40;18.50;;;;;;5074390;28;20438;-86
2023/05/31 08:10:21;;;;;;;4.37;2.07;;;21.50;19.40;;;;;;5064304;28;20466;-87
2023/05/31 08:13:07;;;;;;;8.93;2.33;;;21.50;18.10;;;;;;5068543;28;20458;-87
2023/05/31 08:15:52;;;;;;;6.33;2.47;;;21.60;19.40;;;;;;5071192;28;20462;-88
2023/05/31 08:18:38;;;;;;;5.13;2.33;;;21.60;19.60;;;;;;5079713;28;20558;-88
2023/05/31 08:21:24;;;;;;;4.60;2.43;;;21.70;18.20;;;;;;5065824;28;20443;-88
2023/05/31 08:24:10;;;;;;;5.53;2.97;;;21.70;16.30;;;;;;5077580;28;20462;-88
2023/05/31 08:26:56;;;;;;;4.50;2.23;;;21.80;16.70;;;;;;5079996;28;20906;-88
2023/05/31 08:29:42;;;;;;;7.30;2.27;;;21.80;18.30;;;;;;5063613;28;20443;-88
2023/05/31 08:32:27;;;;;;;5.40;2.00;;;21.80;17.90;;;;;;5065761;28;20916;-87
2023/05/31 08:35:13;;;;;;;5.13;2.23;;;22.00;17.90;;;;;;5069968;28;20458;-88
2023/05/31 08:37:59;;;;;;;6.73;2.57;;;22.00;18.80;;;;;;5074198;28;20497;-87
2023/05/31 08:40:45;;;;;;;3.33;2.30;;;22.10;16.70;;;;;;5074666;28;20438;-86
2023/05/31 08:43:32;;;;;;;7.50;2.67;;;22.20;18.00;;;;;;5068631;28;20443;-87
2023/05/31 08:46:19;;;;;;;4.20;2.40;;;22.30;16.80;;;;;;5068986;28;20646;-87
2023/05/31 08:49:10;;;;;;;6.33;2.50;;;22.30;18.10;;;;;;5077229;28;21066;-87
2023/05/31 08:51:57;;;;;;;5.50;2.20;;;22.30;17.40;;;;;;5081041;28;20806;-88
2023/05/31 08:54:43;;;;;;;5.80;2.77;;;22.40;17.30;;;;;;5077227;28;20451;-87
2023/05/31 08:57:31;;;;;;;9.63;2.63;;;22.40;16.90;;;;;;5069749;28;20812;-88
2023/05/31 09:00:18;;;;;;;4.50;2.33;;;22.50;19.10;;;;;;5073367;28;20447;-87
2023/05/31 09:03:06;;;;;;;9.27;2.83;;;22.60;17.10;;;;;;5070155;28;20439;-87
2023/05/31 09:05:53;;;;;;;5.70;2.47;;;22.60;18.30;;;;;;5077137;28;20483;-88
2023/05/31 09:08:39;;;;;;;5.27;2.70;;;22.70;17.20;;;;;;5068579;28;20459;-87
2023/05/31 09:11:25;;;;;;;6.13;2.63;;;22.70;17.20;;;;;;5062623;28;20439;-87
2023/05/31 09:14:12;;;;;;;9.00;2.60;;;22.80;16.50;;;;;;5076254;28;20548;-88
2023/05/31 09:16:57;;;;;;;3.60;2.13;;;22.90;16.30;;;;;;5066399;28;20539;-88
2023/05/31 09:19:51;;;;;;;5.20;2.47;;;22.80;16.10;;;;;;5064405;28;20417;-87
2023/05/31 09:22:36;;;;;;;6.47;2.23;;;22.80;17.20;;;;;;5066796;28;20438;-88
2023/05/31 09:25:22;;;;;;;5.50;2.40;;;22.90;17.30;;;;;;5068375;28;20593;-88
2023/05/31 09:28:07;;;;;;;5.50;2.40;;;23.10;17.50;;;;;;5073273;28;20497;-87
2023/05/31 09:31:05;;;;;;;10.13;2.40;;;23.10;15.90;;;;;;5063679;28;20444;-88
2023/05/31 09:33:53;;;;;;;4.90;2.23;;;23.20;16.40;;;;;;5072238;28;20471;-88
2023/05/31 09:36:43;;;;;;;4.83;2.43;;;23.20;15.70;;;;;;5072582;28;20479;-88
2023/05/31 09:39:30;;;;;;;5.27;2.37;;;23.30;14.70;;;;;;5071570;28;20967;-88
2023/05/31 09:42:15;;;;;;;9.13;2.90;;;23.30;15.00;;;;;;5070936;28;20487;-88
2023/05/31 09:45:00;;;;;;;11.73;2.40;;;23.30;14.40;;;;;;5075697;28;20490;-88
2023/05/31 09:47:48;;;;;;;5.60;2.20;;;23.30;14.90;;;;;;5075265;28;20442;-87
2023/05/31 09:50:34;;;;;;;5.73;2.17;;;23.40;15.10;;;;;;5069578;28;20431;-87
2023/05/31 09:53:19;;;;;;;8.10;2.90;;;23.50;15.80;;;;;;5074616;28;20425;-88
2023/05/31 09:56:09;;;;;;;6.10;2.20;;;23.60;12.80;;;;;;5073111;28;20826;-88
2023/05/31 09:58:57;;;;;;;6.47;2.20;;;23.50;13.40;;;;;;5066791;28;20455;-88
2023/05/31 10:01:43;;;;;;;4.43;1.73;;;23.40;12.80;;;;;;5066802;28;20442;-87
2023/05/31 10:04:30;;;;;;;5.40;2.50;;;23.50;14.20;;;;;;5070510;28;20459;-88
2023/05/31 10:07:15;;;;;;;6.77;2.80;;;23.50;14.00;;;;;;5075311;28;20426;-88
2023/05/31 10:10:01;;;;;;;7.00;2.83;;;23.70;14.30;;;;;;5073209;28;20447;-87
2023/05/31 10:12:51;;;;;;;11.30;2.60;;;23.80;15.30;;;;;;5061000;28;20461;-87
2023/05/31 10:15:38;;;;;;;4.80;2.30;;;23.90;15.00;;;;;;5062759;28;20471;-88
2023/05/31 10:18:28;;;;;;;4.50;2.00;;;24.00;15.20;;;;;;5056249;28;20485;-87
2023/05/31 10:21:22;;;;;;;11.63;2.50;;;24.10;14.70;;;;;;5061702;28;20478;-86
2023/05/31 10:24:09;;;;;;;6.73;2.10;;;24.20;16.10;;;;;;5066598;28;20483;-86
2023/05/31 10:27:02;;;;;;;5.60;2.10;;;24.30;13.80;;;;;;5069016;28;20451;-86
2023/05/31 10:29:51;;;;;;;6.53;2.00;;;24.40;15.10;;;;;;5061304;28;20447;-86
2023/05/31 10:32:43;;;;;;;5.30;2.57;;;24.40;15.10;;;;;;5061226;28;20450;-86
2023/05/31 10:35:28;;;;;;;6.80;2.50;;;24.40;13.70;;;;;;5071380;28;20596;-86
2023/05/31 10:38:16;;;;;;;7.00;2.73;;;24.40;13.30;;;;;;5066014;28;20518;-86
2023/05/31 10:41:07;;;;;;;4.13;2.27;;;24.50;14.90;;;;;;5072072;28;20435;-86
2023/05/31 10:43:56;;;;;;;6.20;2.43;;;24.50;12.90;;;;;;5072521;28;20447;-86
2023/05/31 10:46:43;;;;;;;4.93;2.70;;;24.50;12.20;;;;;;5074713;28;20470;-86
2023/05/31 10:49:36;;;;;;;6.30;2.40;;;24.50;14.60;;;;;;5063353;28;21079;-86
2023/05/31 10:52:21;;;;;;;3.37;1.93;;;24.50;12.50;;;;;;5075619;28;20517;-86
2023/05/31 10:55:18;;;;;;;6.33;2.30;;;24.60;12.80;;;;;;5071230;28;20968;-87
2023/05/31 10:58:04;;;;;;;4.57;2.30;;;24.70;12.50;;;;;;5072686;28;20438;-86
2023/05/31 11:00:52;;;;;;;3.43;2.10;;;24.70;12.10;;;;;;5081520;28;20438;-86
2023/05/31 11:03:45;;;;;;;5.67;2.43;;;24.80;12.50;;;;;;5066361;28;20947;-86
2023/05/31 11:06:32;;;;;;;10.43;2.23;;;24.80;11.10;;;;;;5074229;28;20544;-86
2023/05/31 11:09:18;;;;;;;5.53;2.37;;;24.80;11.30;;;;;;5070987;28;20569;-86
2023/05/31 11:12:06;;;;;;;4.87;2.30;;;24.80;15.00;;;;;;5073531;28;20447;-86
2023/05/31 11:15:00;;;;;;;4.00;2.40;;;24.90;11.20;;;;;;5084906;28;20442;-86
2023/05/31 11:17:53;;;;;;;5.67;1.97;;;24.90;10.80;;;;;;5074737;28;20844;-86
2023/05/31 11:20:38;;;;;;;3.97;2.10;;;25.00;10.70;;;;;;5097078;22;20569;-71
2023/05/31 11:23:30;;;;;;;7.80;2.60;;;25.10;10.40;;;;;;5067288;28;20463;-71
2023/05/31 11:26:18;;;;;;;6.80;1.87;;;25.00;10.00;;;;;;5080606;28;20462;-71
2023/05/31 11:29:05;;;;;;;6.80;2.30;;;25.10;9.60;;;;;;5075454;28;20935;-73
2023/05/31 11:31:58;;;;;;;8.50;2.10;;;25.10;11.00;;;;;;5077743;28;20602;-73
2023/05/31 11:34:50;;;;;;;7.33;2.40;;;25.30;11.80;;;;;;5068442;28;20590;-72
2023/05/31 11:37:37;;;;;;;3.17;1.77;;;25.50;9.80;;;;;;5067713;28;20450;-72
2023/05/31 11:40:23;;;;;;;13.00;3.00;;;25.60;9.40;;;;;;5074045;28;20442;-72
2023/05/31 11:43:15;;;;;;;4.67;1.80;;;25.60;9.00;;;;;;5071604;28;20466;-72
2023/05/31 11:46:04;;;;;;;5.43;2.00;;;25.70;10.10;;;;;;5073582;28;20621;-72
2023/05/31 11:48:50;;;;;;;8.40;2.07;;;25.70;10.70;;;;;;5070915;28;20439;-73
2023/05/31 11:51:35;;;;;;;3.57;1.77;;;25.80;9.40;;;;;;5070920;28;20443;-72
2023/05/31 11:54:26;;;;;;;4.60;2.23;;;25.90;7.80;;;;;;5071936;28;20466;-72
2023/05/31 11:57:12;;;;;;;5.13;1.90;;;25.90;7.60;;;;;;5066403;28;20459;-72
2023/05/31 12:00:09;;;;;;;5.93;2.50;;;25.80;7.80;;;;;;5071345;28;20509;-72
2023/05/31 12:02:57;;;;;;;5.03;2.37;;;25.80;9.20;;;;;;5072609;28;20980;-72
2023/05/31 12:05:42;;;;;;;6.50;2.60;;;25.90;9.10;;;;;;5073689;28;20565;-73
2023/05/31 12:08:28;;;;;;;4.60;2.60;;;26.00;9.80;;;;;;5064719;28;20442;-72
2023/05/31 12:11:13;;;;;;;8.87;1.90;;;26.10;7.70;;;;;;5074705;28;20447;-73
2023/05/31 12:13:59;;;;;;;7.30;1.87;;;26.30;7.80;;;;;;5072613;28;20462;-72
2023/05/31 12:16:49;;;;;;;5.90;2.30;;;26.30;9.20;;;;;;5067047;28;20444;-73
2023/05/31 12:19:37;;;;;;;8.20;2.50;;;26.30;8.40;;;;;;5077564;28;20475;-73
2023/05/31 12:22:22;;;;;;;5.87;2.20;;;26.40;7.70;;;;;;5075190;28;20915;-72
2023/05/31 12:25:08;;;;;;;4.97;2.80;;;26.40;7.10;;;;;;5070017;28;20451;-73
2023/05/31 12:27:54;;;;;;;6.73;2.40;;;26.50;8.00;;;;;;5056291;28;20439;-73
2023/05/31 12:30:43;;;;;;;5.70;3.53;;;26.60;8.00;;;;;;5066581;28;20501;-71
2023/05/31 12:33:30;;;;;;;6.90;2.90;;;26.70;6.60;;;;;;5067900;28;20822;-70
2023/05/31 12:36:18;;;;;;;4.40;1.87;;;26.70;6.90;;;;;;5062735;28;20455;-71
2023/05/31 12:39:09;;;;;;;4.50;2.00;;;26.80;8.10;;;;;;5061158;28;21976;-71
2023/05/31 12:41:54;;;;;;;7.77;2.10;;;26.90;7.00;;;;;;5068060;28;20565;-72
2023/05/31 12:44:44;;;;;;;3.53;2.10;;;27.00;7.30;;;;;;5067693;28;20442;-71
2023/05/31 12:47:29;;;;;;;6.17;2.93;;;27.20;7.50;;;;;;5061772;28;20483;-72
2023/05/31 12:50:15;;;;;;;6.10;2.40;;;27.30;6.20;;;;;;5070707;28;20521;-71
2023/05/31 12:53:01;;;;;;;3.77;1.97;;;27.40;5.80;;;;;;5067351;28;20466;-71
2023/05/31 12:55:47;;;;;;;5.33;2.07;;;27.40;4.90;;;;;;5065418;28;20443;-71
2023/05/31 12:58:32;;;;;;;3.20;1.67;;;27.30;6.30;;;;;;5065083;28;20438;-71
2023/05/31 13:01:18;;;;;;;5.17;2.47;;;27.30;5.90;;;;;;5065759;28;20444;-70
2023/05/31 13:04:04;;;;;;;6.97;2.30;;;27.50;5.70;;;;;;5069757;28;20471;-71
2023/05/31 13:06:49;;;;;;;11.53;2.07;;;27.50;3.80;;;;;;5062615;28;20475;-71
2023/05/31 13:09:36;;;;;;;5.40;2.67;;;27.50;4.80;;;;;;5057671;28;20554;-70
2023/05/31 13:12:22;;;;;;;8.47;2.67;;;27.60;4.90;;;;;;5064087;28;20447;-72
2023/05/31 13:15:08;;;;;;;8.43;3.20;;;27.50;5.30;;;;;;5066208;28;20486;-73
2023/05/31 13:17:54;;;;;;;7.53;2.27;;;27.50;5.50;;;;;;5075191;28;20426;-70
2023/05/31 13:20:39;;;;;;;3.73;2.03;;;27.50;5.00;;;;;;5073893;28;20443;-72
2023/05/31 13:23:25;;;;;;;4.40;2.03;;;27.60;5.70;;;;;;5057590;28;20846;-71
2023/05/31 13:26:12;;;;;;;4.07;2.40;;;27.80;5.70;;;;;;5061059;28;20463;-70
2023/05/31 13:28:59;;;;;;;5.43;2.30;;;27.90;6.40;;;;;;5079803;28;20422;-70
2023/05/31 13:31:45;;;;;;;9.67;2.60;;;28.00;5.30;;;;;;5066452;28;20443;-71
2023/05/31 13:34:31;;;;;;;5.30;2.00;;;28.30;5.90;;;;;;5070716;28;20601;-71
2023/05/31 13:37:20;;;;;;;5.90;2.27;;;28.40;4.70;;;;;;5063082;28;20451;-71
2023/05/31 13:40:07;;;;;;;5.27;2.57;;;28.50;4.30;;;;;;5068636;28;20550;-70
2023/05/31 13:42:53;;;;;;;6.83;2.17;;;28.60;5.60;;;;;;5064702;28;20548;-72
2023/05/31 13:45:39;;;;;;;5.47;3.47;;;28.70;4.10;;;;;;5063956;28;20447;-71
2023/05/31 13:48:24;;;;;;;7.23;2.53;;;28.60;3.10;;;;;;5067237;28;20968;-70
2023/05/31 13:51:11;;;;;;;5.80;2.20;;;28.60;4.80;;;;;;5069113;28;20807;-70
2023/05/31 13:53:56;;;;;;;3.93;2.10;;;28.70;4.70;;;;;;5067854;28;20475;-71
2023/05/31 13:56:42;;;;;;;4.40;2.00;;;28.80;4.60;;;;;;5065019;28;20443;-73
2023/05/31 13:59:29;;;;;;;4.10;2.03;;;28.90;3.80;;;;;;5069164;28;20451;-71
2023/05/31 14:02:14;;;;;;;5.47;2.20;;;28.90;4.60;;;;;;5065876;28;20542;-71
2023/05/31 14:05:02;;;;;;;6.40;2.57;;;29.10;3.60;;;;;;5059962;28;20470;-72
2023/05/31 14:07:49;;;;;;;12.90;2.33;;;29.00;3.70;;;;;;5064733;28;20480;-70
2023/05/31 14:10:34;;;;;;;13.63;3.03;;;28.90;4.30;;;;;;5067106;28;20455;-71
2023/05/31 14:13:20;;;;;;;7.00;2.00;;;28.90;4.60;;;;;;5069634;28;20478;-71
2023/05/31 14:16:06;;;;;;;8.10;2.63;;;28.80;4.50;;;;;;5067673;28;20503;-71
2023/05/31 14:18:52;;;;;;;17.00;2.97;;;28.90;4.80;;;;;;5070220;28;20442;-71
2023/05/31 14:21:37;;;;;;;5.80;2.63;;;28.80;4.60;;;;;;5069231;28;20522;-71
2023/05/31 14:24:23;;;;;;;3.57;2.40;;;28.70;4.10;;;;;;5063243;28;20478;-71
2023/05/31 14:27:09;;;;;;;5.70;2.47;;;28.70;4.10;;;;;;5065986;28;20540;-71
2023/05/31 14:29:54;;;;;;;4.93;2.27;;;28.70;4.40;;;;;;5062760;28;20447;-72